createdAt,value
2018-07-12T00:02:01.601Z,87.00
2018-07-12T00:04:28.928Z,87.60
2018-07-12T00:06:56.565Z,87.70
2018-07-12T00:09:23.924Z,87.60
2018-07-12T00:11:51.251Z,87.80
2018-07-12T00:14:18.613Z,87.50
2018-07-12T00:16:46.221Z,87.60
2018-07-12T00:19:13.860Z,87.70
2018-07-12T00:21:41.204Z,87.40
2018-07-12T00:24:08.812Z,88.30
2018-07-12T00:26:36.164Z,88.10
2018-07-12T00:29:03.500Z,88.10
2018-07-12T00:31:30.820Z,88.30
2018-07-12T00:33:58.147Z,88.50
2018-07-12T00:36:25.485Z,88.60
2018-07-12T00:38:52.815Z,89.40
2018-07-12T00:41:20.133Z,88.90
2018-07-12T00:43:47.502Z,89.40
2018-07-12T00:46:14.844Z,90.00
2018-07-12T00:48:42.200Z,90.10
2018-07-12T00:51:09.660Z,90.20
2018-07-12T00:53:36.983Z,90.30
2018-07-12T00:56:04.335Z,90.10
2018-07-12T00:58:31.684Z,90.00
2018-07-12T01:00:59.016Z,90.00
2018-07-12T01:03:26.353Z,90.20
2018-07-12T01:05:53.691Z,90.30
2018-07-12T01:08:21.029Z,90.30
2018-07-12T01:10:48.695Z,90.30
2018-07-12T01:13:15.992Z,90.60
2018-07-12T01:15:43.302Z,90.80
2018-07-12T01:18:10.660Z,90.30
2018-07-12T01:20:37.993Z,90.10
2018-07-12T01:23:05.297Z,90.30
2018-07-12T01:25:32.576Z,90.80
2018-07-12T01:27:59.904Z,90.70
2018-07-12T01:30:27.209Z,90.50
2018-07-12T01:32:54.760Z,90.50
2018-07-12T01:35:22.132Z,90.30
2018-07-12T01:37:49.410Z,90.50
2018-07-12T01:40:16.755Z,90.30
2018-07-12T01:42:44.076Z,90.30
2018-07-12T01:45:11.385Z,90.20
2018-07-12T01:47:38.706Z,90.20
2018-07-12T01:50:06.028Z,90.10
2018-07-12T01:52:33.339Z,90.30
2018-07-12T01:55:00.616Z,90.20
2018-07-12T01:57:27.926Z,90.20
2018-07-12T01:59:55.220Z,90.30
2018-07-12T02:02:22.566Z,90.40
2018-07-12T02:04:50.279Z,90.30
2018-07-12T02:07:17.624Z,90.30
2018-07-12T02:09:44.976Z,90.60
2018-07-12T02:12:12.271Z,90.70
2018-07-12T02:14:39.583Z,90.80
2018-07-12T02:17:07.234Z,90.50
2018-07-12T02:19:34.590Z,90.50
2018-07-12T02:22:01.857Z,90.40
2018-07-12T02:24:29.198Z,90.50
2018-07-12T02:26:56.500Z,90.80
2018-07-12T02:29:24.019Z,90.80
2018-07-12T02:31:51.333Z,90.80
2018-07-12T02:34:19.033Z,90.80
2018-07-12T02:36:46.702Z,90.70
2018-07-12T02:39:14.060Z,91.20
2018-07-12T02:41:41.741Z,91.00
2018-07-12T02:44:09.421Z,90.80
2018-07-12T02:46:37.167Z,90.70
2018-07-12T02:49:04.853Z,91.00
2018-07-12T02:51:32.442Z,91.10
2018-07-12T02:54:00.559Z,91.40
2018-07-12T02:56:27.860Z,91.00
2018-07-12T02:58:55.169Z,90.80
2018-07-12T03:01:22.496Z,90.50
2018-07-12T03:03:49.800Z,90.60
2018-07-12T03:06:17.140Z,90.60
2018-07-12T03:08:44.473Z,91.00
2018-07-12T03:11:11.804Z,90.80
2018-07-12T03:13:39.339Z,90.80
2018-07-12T03:16:06.630Z,90.80
2018-07-12T03:18:33.966Z,90.90
2018-07-12T03:21:01.248Z,90.80
2018-07-12T03:23:28.551Z,91.00
2018-07-12T03:25:56.109Z,90.90
2018-07-12T03:28:23.444Z,91.00
2018-07-12T03:30:51.029Z,91.00
2018-07-12T03:33:18.801Z,91.60
2018-07-12T03:35:46.525Z,91.80
2018-07-12T03:38:13.955Z,91.80
2018-07-12T03:40:41.307Z,91.90
2018-07-12T03:43:08.640Z,91.90
2018-07-12T03:45:36.012Z,91.80
2018-07-12T03:48:03.347Z,91.60
2018-07-12T03:50:30.691Z,92.20
2018-07-12T03:52:58.018Z,91.70
2018-07-12T03:55:25.315Z,92.00
2018-07-12T03:57:52.591Z,91.90
2018-07-12T04:00:19.925Z,92.00
2018-07-12T04:02:47.274Z,91.90
2018-07-12T04:05:14.912Z,91.90
2018-07-12T04:07:42.497Z,92.10
2018-07-12T04:10:09.801Z,92.40
2018-07-12T04:12:37.104Z,92.70
2018-07-12T04:15:04.476Z,92.60
2018-07-12T04:17:32.843Z,92.60
2018-07-12T04:20:01.452Z,92.20
2018-07-12T04:22:30.929Z,92.10
2018-07-12T04:24:58.263Z,92.10
2018-07-12T04:27:25.841Z,91.90
2018-07-12T04:29:54.528Z,92.40
2018-07-12T04:32:21.814Z,92.10
2018-07-12T04:34:49.818Z,92.30
2018-07-12T04:37:17.387Z,93.00
2018-07-12T04:39:44.889Z,92.50
2018-07-12T04:42:12.492Z,92.50
2018-07-12T04:44:40.142Z,92.70
2018-07-12T04:47:07.504Z,92.60
2018-07-12T04:49:34.996Z,92.50
2018-07-12T04:52:02.305Z,92.50
2018-07-12T04:54:29.704Z,92.60
2018-07-12T04:56:57.049Z,92.20
2018-07-12T04:59:24.892Z,92.00
2018-07-12T05:01:52.187Z,92.10
2018-07-12T05:04:19.488Z,92.10
2018-07-12T05:06:46.860Z,91.90
2018-07-12T05:09:14.558Z,92.00
2018-07-12T05:14:09.411Z,91.70
2018-07-12T05:16:36.703Z,91.30
2018-07-12T05:19:04.028Z,91.30
2018-07-12T05:21:32.058Z,91.40
2018-07-12T05:23:59.360Z,91.40
2018-07-12T05:26:26.655Z,91.20
2018-07-12T05:28:53.959Z,91.10
2018-07-12T05:31:21.253Z,90.90
2018-07-12T05:33:48.516Z,91.00
2018-07-12T05:36:22.777Z,91.20
2018-07-12T05:38:51.264Z,91.00
2018-07-12T05:41:19.620Z,90.90
2018-07-12T05:43:48.045Z,90.70
2018-07-12T05:46:16.791Z,90.60
2018-07-12T05:48:45.423Z,90.60
2018-07-12T05:51:14.163Z,90.30
2018-07-12T05:53:42.564Z,90.20
2018-07-12T05:56:10.975Z,89.70
2018-07-12T05:58:39.365Z,89.20
2018-07-12T06:01:17.956Z,89.20
2018-07-12T06:03:46.277Z,88.90
2018-07-12T06:08:42.774Z,89.50
2018-07-12T06:11:11.212Z,88.90
2018-07-12T06:13:39.930Z,89.10
2018-07-12T06:16:08.328Z,88.40
2018-07-12T06:18:36.999Z,88.10
2018-07-12T06:21:05.426Z,87.70
2018-07-12T06:23:33.902Z,87.90
2018-07-12T06:26:02.354Z,88.00
2018-07-12T06:28:31.419Z,88.60
2018-07-12T06:30:59.888Z,88.70
2018-07-12T06:33:28.772Z,89.10
2018-07-12T06:35:57.468Z,88.40
2018-07-12T06:38:26.781Z,88.80
2018-07-12T06:40:55.238Z,88.70
2018-07-12T06:43:23.653Z,88.50
2018-07-12T06:45:52.409Z,87.70
2018-07-12T06:48:21.111Z,86.40
2018-07-12T06:50:49.533Z,85.60
2018-07-12T06:53:17.892Z,86.50
2018-07-12T06:55:46.303Z,85.50
2018-07-12T06:58:14.716Z,85.40
2018-07-12T07:00:43.503Z,85.40
2018-07-12T07:03:12.154Z,84.80
2018-07-12T07:05:40.576Z,83.80
2018-07-12T07:08:08.979Z,82.90
2018-07-12T07:10:37.429Z,82.60
2018-07-12T07:13:06.078Z,81.80
2018-07-12T07:15:34.493Z,82.20
2018-07-12T07:18:02.921Z,83.20
2018-07-12T07:20:31.586Z,82.20
2018-07-12T07:23:00.032Z,82.50
2018-07-12T07:25:28.816Z,82.80
2018-07-12T07:27:57.206Z,82.30
2018-07-12T07:30:25.589Z,81.50
2018-07-12T07:32:54.381Z,81.80
2018-07-12T07:35:22.837Z,82.20
2018-07-12T07:37:51.564Z,81.10
2018-07-12T07:40:19.952Z,81.50
2018-07-12T07:42:48.403Z,81.30
2018-07-12T07:45:16.852Z,80.80
2018-07-12T07:47:45.288Z,80.00
2018-07-12T07:50:13.739Z,79.60
2018-07-12T07:52:42.172Z,80.00
2018-07-12T07:55:10.565Z,79.70
2018-07-12T07:57:39.043Z,80.40
2018-07-12T08:00:07.479Z,79.20
2018-07-12T08:02:35.952Z,78.80
2018-07-12T08:05:04.438Z,78.40
2018-07-12T08:07:32.914Z,78.80
2018-07-12T08:10:01.344Z,78.40
2018-07-12T08:12:29.730Z,78.60
2018-07-12T08:14:58.239Z,77.80
2018-07-12T08:19:54.801Z,78.00
2018-07-12T08:24:51.316Z,75.50
2018-07-12T08:27:20.038Z,75.70
2018-07-12T08:32:17.442Z,75.50
2018-07-12T08:34:47.017Z,75.70
2018-07-12T08:37:15.433Z,76.20
2018-07-12T08:39:43.804Z,76.30
2018-07-12T08:42:12.193Z,75.80
2018-07-12T08:44:40.651Z,74.80
2018-07-12T08:47:08.943Z,73.00
2018-07-12T08:49:37.381Z,72.40
2018-07-12T08:52:05.768Z,71.10
2018-07-12T08:54:34.336Z,69.30
2018-07-12T08:57:02.934Z,68.70
2018-07-12T08:59:31.376Z,68.00
2018-07-12T09:02:00.356Z,67.60
2018-07-12T09:04:28.777Z,66.60
2018-07-12T09:06:57.212Z,68.00
2018-07-12T09:09:26.007Z,67.60
2018-07-12T09:11:54.892Z,68.10
2018-07-12T09:14:24.799Z,66.60
2018-07-12T09:16:54.930Z,66.20
2018-07-12T09:19:23.348Z,65.20
2018-07-12T09:24:20.644Z,64.50
2018-07-12T09:26:49.671Z,64.50
2018-07-12T09:29:18.509Z,63.80
2018-07-12T09:31:46.938Z,62.90
2018-07-12T09:34:15.590Z,63.50
2018-07-12T09:36:44.009Z,62.20
2018-07-12T09:39:12.640Z,62.40
2018-07-12T09:41:41.341Z,63.70
2018-07-12T09:44:09.757Z,61.50
2018-07-12T09:46:38.147Z,61.50
2018-07-12T09:49:06.592Z,61.80
2018-07-12T09:51:35.264Z,61.40
2018-07-12T09:54:03.948Z,60.40
2018-07-12T09:56:43.789Z,60.40
2018-07-12T09:59:12.045Z,61.50
2018-07-12T10:01:45.886Z,63.70
2018-07-12T10:04:14.299Z,61.60
2018-07-12T10:06:48.120Z,62.00
2018-07-12T10:09:21.755Z,62.50
2018-07-12T10:11:55.642Z,61.60
2018-07-12T10:14:29.569Z,60.20
2018-07-12T10:17:03.439Z,60.10
2018-07-12T10:19:32.102Z,59.70
2018-07-12T10:22:00.555Z,59.00
2018-07-12T10:24:29.065Z,58.60
2018-07-12T10:26:57.505Z,57.70
2018-07-12T10:29:25.912Z,56.50
2018-07-12T10:31:54.248Z,56.80
2018-07-12T10:34:22.593Z,56.30
2018-07-12T10:36:50.984Z,56.00
2018-07-12T10:39:19.574Z,54.70
2018-07-12T10:41:48.073Z,56.00
2018-07-12T10:44:16.501Z,55.80
2018-07-12T10:46:44.881Z,56.60
2018-07-12T10:49:13.385Z,57.20
2018-07-12T10:51:41.821Z,57.40
2018-07-12T10:54:10.533Z,55.70
2018-07-12T10:56:39.031Z,54.00
2018-07-12T10:59:07.569Z,53.40
2018-07-12T11:01:35.948Z,53.20
2018-07-12T11:04:04.372Z,53.70
2018-07-12T11:06:33.048Z,52.20
2018-07-12T11:09:01.703Z,53.00
2018-07-12T11:11:30.189Z,53.10
2018-07-12T11:13:58.671Z,53.40
2018-07-12T11:16:27.436Z,52.50
2018-07-12T11:18:55.927Z,52.40
2018-07-12T11:21:24.823Z,52.00
2018-07-12T11:23:53.252Z,51.80
2018-07-12T11:26:21.696Z,51.60
2018-07-12T11:28:50.126Z,52.60
2018-07-12T11:31:18.582Z,51.40
2018-07-12T11:33:48.111Z,50.20
2018-07-12T11:36:16.533Z,49.60
2018-07-12T11:38:45.389Z,50.10
2018-07-12T11:41:13.921Z,50.50
2018-07-12T11:43:42.536Z,49.30
2018-07-12T11:47:40.377Z,48.60
2018-07-12T11:50:08.856Z,49.30
2018-07-12T11:52:37.446Z,49.80
2018-07-12T11:55:05.899Z,49.40
2018-07-12T11:57:34.333Z,49.10
2018-07-12T12:00:02.677Z,50.30
2018-07-12T12:02:32.211Z,49.20
2018-07-12T12:05:00.932Z,47.00
2018-07-12T12:07:29.385Z,47.80
2018-07-12T12:09:57.768Z,47.20
2018-07-12T12:12:26.097Z,48.10
2018-07-12T12:14:54.478Z,48.40
2018-07-12T12:17:22.851Z,48.60
2018-07-12T12:19:51.332Z,48.80
2018-07-12T12:22:19.834Z,50.80
2018-07-12T12:24:48.410Z,48.90
2018-07-12T12:27:16.846Z,45.90
2018-07-12T12:29:45.259Z,46.70
2018-07-12T12:32:13.635Z,46.20
2018-07-12T12:34:42.355Z,46.50
2018-07-12T12:37:10.733Z,46.60
2018-07-12T12:39:39.129Z,46.20
2018-07-12T12:42:07.611Z,46.70
2018-07-12T12:44:36.026Z,46.70
2018-07-12T12:47:04.745Z,45.70
2018-07-12T12:49:33.526Z,44.90
2018-07-12T12:52:02.084Z,47.20
2018-07-12T12:54:30.757Z,47.00
2018-07-12T12:56:59.095Z,47.70
2018-07-12T12:59:27.779Z,47.30
2018-07-12T13:01:56.551Z,45.90
2018-07-12T13:04:25.085Z,44.70
2018-07-12T13:09:21.656Z,46.50
2018-07-12T13:11:50.038Z,45.20
2018-07-12T13:16:46.525Z,47.00
2018-07-12T13:19:15.020Z,45.50
2018-07-12T13:21:43.717Z,46.20
2018-07-12T13:24:12.172Z,44.20
2018-07-12T13:26:40.660Z,45.00
2018-07-12T13:29:09.104Z,46.30
2018-07-12T13:31:37.538Z,45.30
2018-07-12T13:34:06.039Z,46.00
2018-07-12T13:36:34.431Z,44.90
2018-07-12T13:39:02.863Z,44.80
2018-07-12T13:41:31.304Z,45.80
2018-07-12T13:44:11.102Z,45.50
2018-07-12T13:46:39.678Z,45.60
2018-07-12T13:49:08.159Z,45.10
2018-07-12T13:51:37.167Z,46.40
2018-07-12T13:54:06.008Z,47.00
2018-07-12T13:56:34.435Z,46.20
2018-07-12T14:01:31.329Z,46.20
2018-07-12T14:03:59.893Z,46.10
2018-07-12T14:06:28.842Z,46.00
2018-07-12T14:08:57.303Z,45.30
2018-07-12T14:11:25.683Z,44.60
2018-07-12T14:13:54.484Z,44.80
2018-07-12T14:16:23.351Z,45.00
2018-07-12T14:18:52.173Z,45.50
2018-07-12T14:21:20.540Z,46.30
2018-07-12T14:23:49.696Z,45.80
2018-07-12T14:28:46.333Z,45.80
2018-07-12T14:31:16.251Z,45.50
2018-07-12T14:33:45.568Z,44.10
2018-07-12T14:36:13.988Z,44.30
2018-07-12T14:38:42.514Z,45.60
2018-07-12T14:41:10.891Z,46.20
2018-07-12T14:43:39.564Z,47.40
2018-07-12T14:46:08.181Z,46.90
2018-07-12T14:48:37.664Z,47.40
2018-07-12T14:51:06.054Z,46.40
2018-07-12T14:53:34.465Z,45.40
2018-07-12T14:56:02.972Z,45.90
2018-07-12T14:58:31.468Z,45.40
2018-07-12T15:05:56.104Z,45.50
2018-07-12T15:08:24.472Z,45.40
2018-07-12T15:10:52.922Z,45.90
2018-07-12T15:13:21.394Z,46.00
2018-07-12T15:15:50.256Z,46.40
2018-07-12T15:18:18.941Z,47.50
2018-07-12T15:20:47.369Z,46.40
2018-07-12T15:23:15.929Z,46.10
2018-07-12T15:25:44.369Z,46.80
2018-07-12T15:28:12.790Z,46.30
2018-07-12T15:30:41.191Z,46.70
2018-07-12T15:33:09.676Z,46.80
2018-07-12T15:35:38.070Z,46.10
2018-07-12T15:38:06.599Z,46.60
2018-07-12T15:40:35.113Z,47.10
2018-07-12T15:45:31.721Z,48.00
2018-07-12T15:48:00.152Z,49.00
2018-07-12T15:52:56.757Z,50.00
2018-07-12T15:55:25.227Z,49.00
2018-07-12T15:57:53.547Z,49.10
2018-07-12T16:00:22.004Z,47.70
2018-07-12T16:02:50.416Z,47.80
2018-07-12T16:05:18.774Z,49.60
2018-07-12T16:07:47.229Z,51.70
2018-07-12T16:10:15.542Z,52.30
2018-07-12T16:12:43.865Z,51.10
2018-07-12T16:15:12.247Z,50.70
2018-07-12T16:17:40.668Z,52.40
2018-07-12T16:20:09.077Z,53.20
2018-07-12T16:22:37.513Z,53.40
2018-07-12T16:25:06.338Z,53.50
2018-07-12T16:27:34.731Z,53.50
2018-07-12T16:30:03.120Z,53.90
2018-07-12T16:32:31.473Z,53.90
2018-07-12T16:34:59.829Z,53.70
2018-07-12T16:37:28.199Z,54.00
2018-07-12T16:39:56.568Z,54.00
2018-07-12T16:42:24.908Z,54.60
2018-07-12T16:44:53.353Z,54.40
2018-07-12T16:47:21.721Z,54.80
2018-07-12T16:49:50.105Z,54.90
2018-07-12T16:52:18.451Z,54.50
2018-07-12T16:54:47.413Z,54.40
2018-07-12T16:57:15.788Z,54.90
2018-07-12T16:59:44.211Z,55.00
2018-07-12T17:02:12.609Z,55.60
2018-07-12T17:04:40.980Z,54.90
2018-07-12T17:07:09.436Z,55.00
2018-07-12T17:09:37.766Z,55.20
2018-07-12T17:12:06.136Z,55.10
2018-07-12T17:14:34.543Z,55.10
2018-07-12T17:17:02.855Z,54.90
2018-07-12T17:19:31.245Z,54.90
2018-07-12T17:21:59.553Z,54.90
2018-07-12T17:24:27.910Z,55.30
2018-07-12T17:26:56.273Z,55.20
2018-07-12T17:29:24.621Z,55.50
2018-07-12T17:31:52.981Z,55.90
2018-07-12T17:34:21.310Z,55.90
2018-07-12T17:36:49.751Z,56.00
2018-07-12T17:39:18.112Z,56.20
2018-07-12T17:44:14.553Z,56.20
2018-07-12T17:46:42.867Z,56.60
2018-07-12T17:49:11.212Z,56.60
2018-07-12T17:51:39.537Z,56.50
2018-07-12T17:54:07.866Z,56.60
2018-07-12T17:56:36.213Z,57.60
2018-07-12T17:59:04.586Z,57.60
2018-07-12T18:01:32.984Z,58.60
2018-07-12T18:04:01.476Z,58.60
2018-07-12T18:06:29.824Z,58.80
2018-07-12T18:08:58.240Z,58.80
2018-07-12T18:11:26.587Z,58.90
2018-07-12T18:13:54.949Z,59.50
2018-07-12T18:16:23.296Z,59.60
2018-07-12T18:18:51.647Z,59.90
2018-07-12T18:21:20.008Z,59.90
2018-07-12T18:23:48.345Z,60.10
2018-07-12T18:26:16.977Z,60.10
2018-07-12T18:31:13.816Z,60.90
2018-07-12T18:33:42.194Z,60.60
2018-07-12T18:36:10.626Z,61.10
2018-07-12T18:38:40.566Z,61.40
2018-07-12T18:41:08.920Z,62.00
2018-07-12T18:43:37.296Z,62.10
2018-07-12T18:46:06.011Z,61.80
2018-07-12T18:48:34.359Z,62.20
2018-07-12T18:51:02.737Z,61.80
2018-07-12T18:53:31.144Z,62.30
2018-07-12T18:55:59.742Z,62.40
2018-07-12T18:58:28.046Z,62.60
2018-07-12T19:00:56.464Z,62.60
2018-07-12T19:03:24.857Z,62.50
2018-07-12T19:05:53.194Z,62.80
2018-07-12T19:08:21.647Z,62.90
2018-07-12T19:10:50.082Z,63.50
2018-07-12T19:13:18.487Z,64.40
2018-07-12T19:15:46.875Z,64.70
2018-07-12T19:18:15.317Z,64.50
2018-07-12T19:20:43.742Z,64.40
2018-07-12T19:23:12.151Z,64.40
2018-07-12T19:25:40.608Z,64.80
2018-07-12T19:28:08.930Z,65.70
2018-07-12T19:30:37.341Z,66.20
2018-07-12T19:33:05.821Z,67.10
2018-07-12T19:35:34.218Z,67.20
2018-07-12T19:38:02.889Z,67.20
2018-07-12T19:40:31.279Z,67.40
2018-07-12T19:42:59.765Z,67.50
2018-07-12T19:45:28.139Z,67.50
2018-07-12T19:47:56.461Z,67.90
2018-07-12T19:50:24.890Z,68.90
2018-07-12T19:52:53.234Z,68.50
2018-07-12T19:55:21.619Z,68.70
2018-07-12T19:57:49.932Z,68.80
2018-07-12T20:00:18.344Z,68.60
2018-07-12T20:02:46.739Z,69.50
2018-07-12T20:05:15.094Z,70.40
2018-07-12T20:07:43.514Z,70.30
2018-07-12T20:10:11.878Z,70.70
2018-07-12T20:12:40.281Z,70.70
2018-07-12T20:15:08.732Z,70.60
2018-07-12T20:24:23.495Z,71.60
2018-07-12T20:26:52.256Z,72.90
2018-07-12T20:29:20.571Z,73.20
2018-07-12T20:31:48.954Z,73.50
2018-07-12T20:34:17.313Z,73.70
2018-07-12T20:36:45.633Z,74.00
2018-07-12T20:39:14.008Z,74.40
2018-07-12T20:41:42.372Z,74.00
2018-07-12T20:44:10.765Z,74.00
2018-07-12T20:46:39.101Z,74.10
2018-07-12T20:49:07.516Z,74.50
2018-07-12T20:51:35.883Z,74.10
2018-07-12T20:54:04.278Z,73.80
2018-07-12T20:56:32.642Z,74.10
2018-07-12T20:59:00.960Z,75.30
2018-07-12T21:01:29.323Z,74.90
2018-07-12T21:05:26.894Z,75.60
2018-07-12T21:07:55.236Z,74.90
2018-07-12T21:10:23.584Z,74.90
2018-07-12T21:12:51.961Z,75.20
2018-07-12T21:15:20.345Z,76.30
2018-07-12T21:17:48.729Z,76.20
2018-07-12T21:20:17.093Z,76.60
2018-07-12T21:22:45.600Z,76.50
2018-07-12T21:25:13.948Z,76.80
2018-07-12T21:27:42.325Z,76.10
2018-07-12T21:30:11.768Z,75.70
2018-07-12T21:35:09.072Z,75.80
2018-07-12T21:37:37.445Z,75.70
2018-07-12T21:40:05.913Z,75.90
2018-07-12T21:42:34.217Z,75.70
2018-07-12T21:45:02.616Z,75.30
2018-07-12T21:47:30.942Z,75.20
2018-07-12T21:49:59.523Z,75.10
2018-07-12T21:52:27.841Z,75.20
2018-07-12T21:54:56.189Z,75.40
2018-07-12T21:57:24.536Z,75.70
2018-07-12T21:59:52.949Z,76.50
2018-07-12T22:02:21.373Z,76.20
2018-07-12T22:04:49.724Z,76.00
2018-07-12T22:08:30.244Z,75.50
2018-07-12T22:13:31.746Z,75.90
2018-07-12T22:16:00.328Z,76.10
2018-07-12T22:20:56.817Z,75.90
2018-07-12T22:23:25.203Z,76.20
2018-07-12T22:25:53.516Z,76.50
2018-07-12T22:28:21.940Z,75.70
2018-07-12T22:30:50.346Z,75.40
2018-07-12T22:33:18.908Z,75.70
2018-07-12T22:35:47.271Z,75.60
2018-07-12T22:38:15.651Z,75.50
2018-07-12T22:40:43.977Z,75.80
2018-07-12T22:43:12.266Z,75.50
2018-07-12T22:45:40.622Z,75.40
2018-07-12T22:48:09.092Z,75.70
2018-07-12T22:50:37.356Z,75.70
2018-07-12T22:53:05.772Z,75.40
2018-07-12T22:55:34.137Z,76.10
2018-07-12T22:58:02.486Z,76.10
2018-07-12T23:00:30.908Z,75.50
2018-07-12T23:02:59.387Z,76.30
2018-07-12T23:07:56.126Z,76.20
2018-07-12T23:10:24.525Z,76.60
2018-07-12T23:12:52.859Z,76.90
2018-07-12T23:15:21.317Z,78.10
2018-07-12T23:20:17.734Z,76.90
2018-07-12T23:22:46.043Z,76.50
2018-07-12T23:25:14.366Z,76.90
2018-07-12T23:27:42.740Z,77.20
2018-07-12T23:30:11.131Z,77.00
2018-07-12T23:32:39.493Z,77.50
2018-07-12T23:35:07.867Z,77.40
2018-07-12T23:37:36.178Z,77.30
2018-07-12T23:40:04.560Z,78.10
2018-07-12T23:42:32.981Z,78.20
2018-07-12T23:45:01.358Z,78.60
2018-07-12T23:47:30.001Z,78.70
2018-07-12T23:49:58.377Z,78.70
2018-07-12T23:52:26.705Z,78.80
2018-07-12T23:54:55.102Z,79.10
2018-07-12T23:57:23.474Z,78.90
2018-07-12T23:59:51.861Z,78.70
